Station: Macquarie Island  

  Atmospheric Gas Attenuation - ITU Rec 676-11   ----------------- dB/100km -----------------
Date Time Temp RH % AH g/m3 Dew Point Wind Direction Speed kph Gust kph Barometer mB Rainfall Since 9am 24GHz 47GHz 76GHz 122GHz 134GHz 241GHz
06/05 11:50 5.7 91 6.48 4.3 20 26 994.2 3 15.4 24.0 34.2 89.7 78.0 266.1
06/05 11:40 6.1 92 6.73 4.9 22 26 994.6 3 15.9 24.3 35.0 92.0 80.9 276.6
06/05 11:30 6.1 92 6.73 4.9 24 32 995 2.6 15.9 24.3 35.1 92.0 81.0 276.7
06/05 11:20 6 91 6.61 4.6 24 28 995.4 2.6 15.7 24.2 34.6 90.8 79.5 271.5
06/05 09:40 6 87 6.32 4 41 44 997.4 0.2 15.0 23.8 33.5 87.9 75.8 258.3
06/05 09:30 6.4 87 6.49 4.4 37 43 997.7 0.2 15.4 24.0 34.1 89.3 77.6 265.0
06/05 09:20 6.3 86 6.37 4.1 33 35 997.6 0 15.1 23.8 33.6 88.1 76.1 259.7
06/05 09:10 6.1 85 6.21 3.8 41 43 997.6 0 14.8 23.6 33.1 86.6 74.2 252.9
06/05 09:00 6.4 85 6.34 4.1 30 32 998 0 15.1 23.7 33.5 87.7 75.7 258.1
06/05 08:50 6.4 83 6.19 3.7 26 28 998.4 0.4 14.7 23.5 32.9 86.2 73.7 251.2
06/05 08:40 6.2 83 6.11 3.5 28 30 998.6 0.4 14.6 23.4 32.7 85.5 72.9 248.2
06/05 08:30 6.2 82 6.03 3.4 30 33 998.6 0.4 14.4 23.3 32.3 84.7 71.8 244.5
06/05 08:20 6.3 82 6.07 3.5 26 28 998.7 0.4 14.5 23.3 32.5 85.0 72.2 246.1
06/05 08:10 6.2 80 5.89 3 32 35 998.9 0.4 14.1 23.1 31.8 83.2 70.0 238.2
06/05 08:00 6.2 80 5.89 3 32 37 999.2 0.4 14.1 23.1 31.8 83.3 70.0 238.2
06/05 07:50 6.2 80 5.89 3 32 35 999.4 0.4 14.1 23.1 31.8 83.3 70.0 238.3
06/05 07:40 6.2 80 5.89 3 28 30 999.5 0.4 14.1 23.1 31.8 83.3 70.0 238.3
06/05 07:30 6.2 78 5.74 2.7 24 32 999.5 0.4 13.8 22.9 31.2 81.7 68.1 231.4
06/05 07:20 6.1 78 5.7 2.6 22 28 999.5 0.4 13.7 22.8 31.1 81.4 67.7 229.9
06/05 07:10 6.2 77 5.67 2.5 24 30 999.5 0.4 13.6 22.8 31.0 81.0 67.2 228.3
06/05 07:00 6 76 5.52 2.1 30 37 999.4 0.4 13.3 22.6 30.4 79.6 65.4 222.0
06/05 06:50 5.8 79 5.66 2.4 28 30 999.3 0.4 13.6 22.8 31.1 81.3 67.4 228.9
06/05 06:40 5.8 80 5.73 2.6 28 28 999.3 0.4 13.8 23.0 31.3 82.0 68.3 232.1
06/05 06:30 5.8 80 5.73 2.6 28 32 999.1 0.4 13.8 22.9 31.3 82.0 68.3 232.1
06/05 06:20 5.7 80 5.7 2.5 30 32 999.2 0.4 13.7 22.9 31.3 81.8 68.0 231.0
06/05 06:10 5.4 80 5.59 2.2 28 32 999.1 0.4 13.5 22.8 30.9 80.9 66.8 226.9
06/05 06:00 5.5 79 5.55 2.2 30 35 998.9 0.4 13.4 22.7 30.7 80.4 66.2 224.7
06/05 05:50 5.7 79 5.63 2.4 28 32 998.9 0.4 13.6 22.8 31.0 81.0 67.1 227.8
06/05 05:40 5.8 77 5.52 2.1 30 33 999 0.4 13.3 22.6 30.5 79.8 65.6 222.5
06/05 05:30 5.8 75 5.38 1.7 39 46 999.1 0.4 13.0 22.4 30.0 78.3 63.8 216.2
06/05 05:20 5.8 75 5.38 1.7 41 44 999.1 0.4 13.0 22.4 30.0 78.3 63.8 216.2
06/05 05:10 5.8 75 5.38 1.7 43 46 999.2 0.4 13.0 22.4 30.0 78.3 63.8 216.2
06/05 05:00 5.9 75 5.41 1.8 43 54 999.5 0.4 13.1 22.4 30.1 78.6 64.1 217.4
06/05 04:50 5.6 74 5.23 1.3 43 48 999.3 0.4 12.7 22.2 29.5 77.0 62.0 210.1
06/05 04:40 5.7 74 5.27 1.4 41 44 999.2 0.4 12.8 22.2 29.6 77.3 62.4 211.6
06/05 04:30 5.9 76 5.48 2 43 52 999.2 0.4 13.2 22.5 30.3 79.3 65.0 220.5
06/05 04:20 5.8 78 5.59 2.3 37 43 999.1 0.4 13.5 22.7 30.8 80.5 66.5 225.7
06/05 04:10 5.8 76 5.45 1.9 41 44 998.9 0.4 13.2 22.5 30.2 79.0 64.7 219.3
06/05 04:00 5.7 75 5.34 1.6 41 48 998.7 0.4 12.9 22.3 29.8 78.0 63.3 214.6
06/05 03:50 5.6 76 5.38 1.7 44 50 998.6 0.4 13.0 22.4 30.0 78.5 63.9 216.7
06/05 03:40 5.7 76 5.41 1.8 37 41 998.7 0.4 13.1 22.4 30.1 78.7 64.2 217.8
06/05 03:30 5.6 76 5.38 1.7 41 46 998.7 0.4 13.0 22.4 30.0 78.5 63.9 216.7
06/05 03:20 5.6 76 5.38 1.7 41 48 998.5 0.4 13.0 22.4 30.0 78.5 63.9 216.7
06/05 03:10 5.5 77 5.41 1.8 50 54 998.5 0.4 13.1 22.5 30.2 78.9 64.4 218.3
06/05 03:00 5.6 79 5.59 2.3 46 56 998.3 0.4 13.5 22.7 30.8 80.6 66.6 226.1
06/05 02:50 5.9 79 5.7 2.5 48 50 998.3 0.4 13.7 22.8 31.1 81.5 67.8 230.3
06/05 02:40 5.8 79 5.66 2.4 46 50 998.2 0.4 13.6 22.8 31.0 81.2 67.3 228.7
06/05 02:30 5.8 79 5.66 2.4 43 50 998.1 0.4 13.6 22.8 31.0 81.2 67.3 228.7
06/05 02:20 5.9 78 5.63 2.4 46 52 998.1 0.4 13.5 22.7 30.9 80.7 66.8 227.0
06/05 02:10 6 81 5.88 3 44 50 998 0.4 14.1 23.1 31.8 83.3 70.0 238.1
06/05 02:00 6 81 5.88 3 43 52 997.9 0.4 14.1 23.1 31.8 83.3 70.0 238.1
06/05 01:50 6.1 81 5.92 3.1 46 52 997.8 0.4 14.2 23.1 31.9 83.6 70.4 239.6
06/05 01:40 5.9 82 5.92 3.1 43 50 997.8 0.4 14.2 23.2 32.0 83.8 70.6 240.2
06/05 01:30 6 86 6.25 3.8 48 59 997.7 0.4 14.9 23.7 33.3 87.2 74.8 255.1
06/05 01:20 6.1 89 6.51 4.4 43 48 997.5 0.4 15.4 24.1 34.3 89.8 78.2 266.9
06/05 01:10 6.1 90 6.58 4.6 39 46 997.4 0.4 15.6 24.2 34.5 90.6 79.1 270.2
06/05 01:00 6.1 90 6.58 4.6 41 52 997.4 0.4 15.6 24.2 34.5 90.6 79.1 270.2
06/05 00:50 6.5 90 6.75 5 41 46 997 0.4 15.9 24.3 35.0 91.9 81.0 276.7
06/05 00:40 6.5 90 6.75 5 41 44 996.8 0.4 15.9 24.3 35.0 91.9 81.0 276.6
06/05 00:30 6.6 90 6.8 5.1 46 56 996.6 0.4 16.0 24.4 35.2 92.3 81.5 278.6
06/05 00:20 6.8 89 6.81 5.1 44 48 996.4 0.4 16.1 24.3 35.1 92.2 81.4 278.3
06/05 00:10 6.8 90 6.89 5.3 44 48 996.3 0.4 16.2 24.4 35.5 93.0 82.5 282.0
06/05 00:00 6.8 91 6.96 5.4 43 50 996.4 0.4 16.4 24.6 35.7 93.8 83.4 285.3
05/05 23:50 6.8 91 6.96 5.4 43 44 996.2 0.4 16.4 24.6 35.7 93.8 83.4 285.3
05/05 23:40 6.8 91 6.96 5.4 41 46 996.3 0.4 16.4 24.6 35.7 93.8 83.4 285.3
05/05 23:30 6.7 92 6.99 5.5 43 54 996.1 0.4 16.5 24.6 35.9 94.2 83.9 287.1
05/05 23:20 6.7 93 7.07 5.7 41 44 996.1 0.4 16.6 24.8 36.2 95.1 85.0 290.9
05/05 23:10 6.9 94 7.24 6 44 52 995.8 0.4 17.0 25.0 36.8 96.7 87.1 298.1
05/05 23:00 6.9 94 7.24 6 52 57 995.7 0.4 17.0 25.0 36.8 96.7 87.1 298.1
05/05 22:50 7 95 7.36 6.3 48 54 995.5 0.4 17.2 25.1 37.3 97.9 88.6 303.4
05/05 22:40 7.1 96 7.49 6.5 44 54 995.3 0.4 17.5 25.3 37.7 99.2 90.2 309.2
05/05 22:30 7.2 95 7.46 6.5 44 46 995.3 0.4 17.5 25.2 37.6 98.7 89.7 307.3
05/05 22:20 7.2 96 7.54 6.6 43 46 995.3 0.4 17.6 25.4 37.9 99.6 90.8 311.2
05/05 22:10 7.2 96 7.54 6.6 43 46 995.3 0.4 17.6 25.4 37.9 99.6 90.8 311.2
05/05 22:00 7.1 96 7.49 6.5 43 46 995.3 0.4 17.5 25.3 37.7 99.2 90.2 309.2
05/05 21:50 7.1 96 7.49 6.5 44 50 995.3 0.4 17.5 25.3 37.7 99.2 90.2 309.2
05/05 21:40 7.1 96 7.49 6.5 43 48 995.3 0.4 17.5 25.3 37.7 99.2 90.2 309.2
05/05 21:30 7.1 97 7.57 6.7 41 46 995.2 0.4 17.7 25.5 38.1 100.1 91.3 313.0
05/05 21:20 7.2 97 7.62 6.8 37 41 995.2 0.4 17.8 25.5 38.2 100.5 91.9 315.0
05/05 21:10 7.3 97 7.67 6.9 46 52 995.1 0.4 17.9 25.6 38.4 100.9 92.4 317.0
05/05 21:00 7.6 97 7.82 7.2 48 52 995 0.2 18.2 25.7 38.9 102.2 94.1 323.0
05/05 20:50 7.6 97 7.82 7.2 46 54 994.9 0.2 18.2 25.7 38.9 102.2 94.1 322.9
05/05 20:40 7.7 97 7.87 7.3 46 52 994.8 0.2 18.3 25.8 39.0 102.6 94.7 324.9
05/05 20:30 7.6 97 7.82 7.2 39 46 994.8 0.2 18.2 25.7 38.9 102.2 94.1 322.9
05/05 20:20 7.6 97 7.82 7.2 41 50 994.7 0.2 18.2 25.7 38.9 102.1 94.1 322.9
05/05 20:10 7.6 97 7.82 7.2 46 50 994.6 0.2 18.2 25.7 38.8 102.1 94.1 322.9
05/05 20:00 7.7 97 7.87 7.3 43 48 994.6 0.2 18.3 25.8 39.0 102.6 94.7 324.8
05/05 19:50 7.7 97 7.87 7.3 44 50 994.5 0.2 18.3 25.8 39.0 102.6 94.7 324.8
05/05 19:40 7.7 97 7.87 7.3 39 41 994.5 0.2 18.3 25.8 39.0 102.6 94.7 324.8
05/05 19:30 7.8 98 8 7.5 41 44 994.5 0.2 18.6 25.9 39.5 103.9 96.3 330.7
05/05 19:20 7.7 97 7.87 7.3 35 39 994.6 0.2 18.3 25.8 39.0 102.6 94.7 324.8
05/05 19:10 7.7 97 7.87 7.3 35 37 994.7 0.2 18.3 25.8 39.0 102.6 94.7 324.9
05/05 19:00 7.7 97 7.87 7.3 37 43 994.8 0.2 18.3 25.8 39.0 102.6 94.7 324.9
05/05 18:50 7.7 97 7.87 7.3 39 41 994.9 0.2 18.3 25.8 39.0 102.6 94.7 324.9
05/05 18:40 7.7 97 7.87 7.3 37 41 994.9 0.2 18.3 25.8 39.0 102.6 94.7 324.9
05/05 18:30 7.7 97 7.87 7.3 41 43 995.1 0.2 18.3 25.8 39.0 102.6 94.7 325.0
05/05 18:20 7.8 97 7.92 7.4 41 43 995.1 0.2 18.4 25.8 39.2 103.0 95.3 327.0
05/05 18:10 7.7 97 7.87 7.3 41 43 995.1 0.2 18.3 25.8 39.0 102.6 94.7 325.0
05/05 18:00 7.8 97 7.92 7.4 39 43 995.2 0.2 18.4 25.8 39.2 103.1 95.3 327.0
05/05 17:50 7.8 97 7.92 7.4 39 43 995.3 0.2 18.4 25.8 39.2 103.1 95.3 327.0

Last Refresh: 06-May-2026 11:32:39

Bureau of Meteorology